sensor_id;sensor_type;location;lat;lon;timestamp;pressure;altitude;pressure_sealevel;temperature;humidity
17525;BME280;40431;52.198;9.902;2023-07-20T00:00:37;100414.06;;;16.73;100.00
17525;BME280;40431;52.198;9.902;2023-07-20T00:03:10;100406.38;;;16.67;100.00
17525;BME280;40431;52.198;9.902;2023-07-20T00:05:38;100414.06;;;16.73;100.00
17525;BME280;40431;52.198;9.902;2023-07-20T00:08:04;100412.13;;;16.64;100.00
17525;BME280;40431;52.198;9.902;2023-07-20T00:10:31;100406.94;;;16.61;100.00
17525;BME280;40431;52.198;9.902;2023-07-20T00:12:58;100410.97;;;16.57;100.00
17525;BME280;40431;52.198;9.902;2023-07-20T00:15:25;100410.50;;;16.51;100.00
17525;BME280;40431;52.198;9.902;2023-07-20T00:17:51;100409.38;;;16.54;100.00
17525;BME280;40431;52.198;9.902;2023-07-20T00:20:18;100413.41;;;16.60;100.00
17525;BME280;40431;52.198;9.902;2023-07-20T00:22:44;100409.41;;;16.64;100.00
17525;BME280;40431;52.198;9.902;2023-07-20T00:25:10;100398.31;;;16.65;100.00
17525;BME280;40431;52.198;9.902;2023-07-20T00:27:37;100399.06;;;16.67;100.00
17525;BME280;40431;52.198;9.902;2023-07-20T00:30:06;100392.69;;;16.67;100.00
17525;BME280;40431;52.198;9.902;2023-07-20T00:32:32;100396.19;;;16.69;100.00
17525;BME280;40431;52.198;9.902;2023-07-20T00:34:59;100393.56;;;16.67;100.00
17525;BME280;40431;52.198;9.902;2023-07-20T00:37:25;100392.22;;;16.62;100.00
17525;BME280;40431;52.198;9.902;2023-07-20T00:39:53;100397.53;;;16.53;100.00
17525;BME280;40431;52.198;9.902;2023-07-20T00:42:19;100395.78;;;16.52;100.00
17525;BME280;40431;52.198;9.902;2023-07-20T00:44:47;100395.06;;;16.50;100.00
17525;BME280;40431;52.198;9.902;2023-07-20T00:47:13;100395.22;;;16.49;100.00
17525;BME280;40431;52.198;9.902;2023-07-20T00:49:40;100389.13;;;16.45;100.00
17525;BME280;40431;52.198;9.902;2023-07-20T00:52:07;100394.69;;;16.34;100.00
17525;BME280;40431;52.198;9.902;2023-07-20T00:54:34;100393.22;;;16.30;100.00
17525;BME280;40431;52.198;9.902;2023-07-20T00:57:02;100401.72;;;16.27;100.00
17525;BME280;40431;52.198;9.902;2023-07-20T00:59:29;100399.97;;;16.26;100.00
17525;BME280;40431;52.198;9.902;2023-07-20T01:01:55;100406.91;;;16.30;100.00
17525;BME280;40431;52.198;9.902;2023-07-20T01:04:23;100401.00;;;16.25;100.00
17525;BME280;40431;52.198;9.902;2023-07-20T01:06:57;100401.97;;;16.24;100.00
17525;BME280;40431;52.198;9.902;2023-07-20T01:09:29;100400.53;;;16.19;100.00
17525;BME280;40431;52.198;9.902;2023-07-20T01:12:00;100411.72;;;16.16;100.00
17525;BME280;40431;52.198;9.902;2023-07-20T01:14:29;100405.72;;;16.23;100.00
17525;BME280;40431;52.198;9.902;2023-07-20T01:16:55;100405.25;;;16.17;100.00
17525;BME280;40431;52.198;9.902;2023-07-20T01:19:23;100409.59;;;16.20;100.00
17525;BME280;40431;52.198;9.902;2023-07-20T01:21:53;100410.19;;;16.24;100.00
17525;BME280;40431;52.198;9.902;2023-07-20T01:27:26;100399.31;;;16.12;100.00
17525;BME280;40431;52.198;9.902;2023-07-20T01:30:11;100399.78;;;16.17;100.00
17525;BME280;40431;52.198;9.902;2023-07-20T01:32:42;100407.69;;;16.20;100.00
17525;BME280;40431;52.198;9.902;2023-07-20T01:35:11;100412.19;;;16.22;100.00
17525;BME280;40431;52.198;9.902;2023-07-20T01:37:40;100400.56;;;16.29;100.00
17525;BME280;40431;52.198;9.902;2023-07-20T01:40:10;100409.63;;;16.30;100.00
17525;BME280;40431;52.198;9.902;2023-07-20T01:42:36;100406.66;;;16.33;100.00
17525;BME280;40431;52.198;9.902;2023-07-20T01:45:03;100408.63;;;16.31;100.00
17525;BME280;40431;52.198;9.902;2023-07-20T01:47:30;100412.66;;;16.27;100.00
17525;BME280;40431;52.198;9.902;2023-07-20T01:49:57;100397.84;;;16.08;100.00
17525;BME280;40431;52.198;9.902;2023-07-20T01:52:24;100397.84;;;16.08;100.00
17525;BME280;40431;52.198;9.902;2023-07-20T01:54:50;100394.38;;;16.06;100.00
17525;BME280;40431;52.198;9.902;2023-07-20T01:57:17;100401.56;;;16.07;100.00
17525;BME280;40431;52.198;9.902;2023-07-20T01:59:43;100401.38;;;15.99;100.00
17525;BME280;40431;52.198;9.902;2023-07-20T02:02:09;100403.84;;;16.02;100.00
17525;BME280;40431;52.198;9.902;2023-07-20T02:04:36;100397.84;;;16.08;100.00
17525;BME280;40431;52.198;9.902;2023-07-20T02:07:04;100400.44;;;16.10;100.00
17525;BME280;40431;52.198;9.902;2023-07-20T02:09:30;100400.44;;;16.10;100.00
17525;BME280;40431;52.198;9.902;2023-07-20T02:11:56;100402.19;;;16.11;100.00
17525;BME280;40431;52.198;9.902;2023-07-20T02:14:23;100394.97;;;16.10;100.00
17525;BME280;40431;52.198;9.902;2023-07-20T02:16:49;100401.56;;;16.07;100.00
17525;BME280;40431;52.198;9.902;2023-07-20T02:19:17;100392.31;;;15.98;100.00
17525;BME280;40431;52.198;9.902;2023-07-20T02:21:44;100404.63;;;15.93;100.00
17525;BME280;40431;52.198;9.902;2023-07-20T02:24:11;100398.03;;;15.95;100.00
17525;BME280;40431;52.198;9.902;2023-07-20T02:26:38;100405.19;;;15.86;100.00
17525;BME280;40431;52.198;9.902;2023-07-20T02:29:04;100399.72;;;15.86;100.00
17525;BME280;40431;52.198;9.902;2023-07-20T02:31:30;100404.03;;;15.89;100.00
17525;BME280;40431;52.198;9.902;2023-07-20T02:33:57;100404.91;;;15.90;100.00
17525;BME280;40431;52.198;9.902;2023-07-20T02:36:23;100408.09;;;15.95;100.00
17525;BME280;40431;52.198;9.902;2023-07-20T02:38:50;100409.56;;;15.99;100.00
17525;BME280;40431;52.198;9.902;2023-07-20T02:41:17;100410.06;;;16.04;100.00
17525;BME280;40431;52.198;9.902;2023-07-20T02:43:44;100401.00;;;16.03;100.00
17525;BME280;40431;52.198;9.902;2023-07-20T02:46:10;100398.38;;;16.02;100.00
17525;BME280;40431;52.198;9.902;2023-07-20T02:48:37;100405.56;;;16.03;100.00
17525;BME280;40431;52.198;9.902;2023-07-20T02:51:03;100410.81;;;16.06;100.00
17525;BME280;40431;52.198;9.902;2023-07-20T02:53:29;100412.50;;;16.07;100.00
17525;BME280;40431;52.198;9.902;2023-07-20T02:55:56;100416.13;;;16.08;100.00
17525;BME280;40431;52.198;9.902;2023-07-20T02:58:23;100415.09;;;16.09;100.00
17525;BME280;40431;52.198;9.902;2023-07-20T03:00:50;100403.31;;;16.08;100.00
17525;BME280;40431;52.198;9.902;2023-07-20T03:03:16;100408.78;;;16.08;100.00
17525;BME280;40431;52.198;9.902;2023-07-20T03:05:43;100413.25;;;16.09;100.00
17525;BME280;40431;52.198;9.902;2023-07-20T03:08:09;100416.50;;;16.03;100.00
17525;BME280;40431;52.198;9.902;2023-07-20T03:10:39;100422.19;;;16.11;100.00
17525;BME280;40431;52.198;9.902;2023-07-20T03:13:06;100411.72;;;16.16;100.00
17525;BME280;40431;52.198;9.902;2023-07-20T03:15:34;100420.66;;;16.18;100.00
17525;BME280;40431;52.198;9.902;2023-07-20T03:18:00;100423.13;;;16.22;100.00
17525;BME280;40431;52.198;9.902;2023-07-20T03:20:28;100420.16;;;16.25;100.00
17525;BME280;40431;52.198;9.902;2023-07-20T03:22:54;100415.00;;;16.31;100.00
17525;BME280;40431;52.198;9.902;2023-07-20T03:25:20;100413.59;;;16.37;100.00
17525;BME280;40431;52.198;9.902;2023-07-20T03:27:47;100418.50;;;16.43;100.00
17525;BME280;40431;52.198;9.902;2023-07-20T03:30:14;100415.22;;;16.49;100.00
17525;BME280;40431;52.198;9.902;2023-07-20T03:32:42;100406.50;;;16.56;100.00
17525;BME280;40431;52.198;9.902;2023-07-20T03:35:08;100401.72;;;16.58;100.00
17525;BME280;40431;52.198;9.902;2023-07-20T03:37:35;100404.47;;;16.58;100.00
17525;BME280;40431;52.198;9.902;2023-07-20T03:40:02;100402.19;;;16.63;100.00
17525;BME280;40431;52.198;9.902;2023-07-20T03:42:29;100412.13;;;16.64;100.00
17525;BME280;40431;52.198;9.902;2023-07-20T03:44:56;100417.63;;;16.64;100.00
17525;BME280;40431;52.198;9.902;2023-07-20T03:47:22;100409.13;;;16.67;100.00
17525;BME280;40431;52.198;9.902;2023-07-20T03:49:50;100407.13;;;16.69;100.00
17525;BME280;40431;52.198;9.902;2023-07-20T03:52:17;100406.13;;;16.70;100.00
17525;BME280;40431;52.198;9.902;2023-07-20T03:54:43;100396.50;;;16.76;100.00
17525;BME280;40431;52.198;9.902;2023-07-20T03:57:09;100399.09;;;16.77;100.00
17525;BME280;40431;52.198;9.902;2023-07-20T03:59:36;100398.81;;;16.80;100.00
17525;BME280;40431;52.198;9.902;2023-07-20T04:02:03;100406.75;;;16.83;100.00
17525;BME280;40431;52.198;9.902;2023-07-20T04:04:31;100411.81;;;16.88;100.00
17525;BME280;40431;52.198;9.902;2023-07-20T04:06:59;100412.69;;;16.89;100.00
17525;BME280;40431;52.198;9.902;2023-07-20T04:09:25;100417.63;;;16.95;100.00
17525;BME280;40431;52.198;9.902;2023-07-20T04:11:51;100411.59;;;16.91;100.00
17525;BME280;40431;52.198;9.902;2023-07-20T04:14:18;100403.72;;;16.86;100.00
17525;BME280;40431;52.198;9.902;2023-07-20T04:16:46;100404.84;;;16.74;100.00
17525;BME280;40431;52.198;9.902;2023-07-20T04:19:12;100406.81;;;16.62;100.00
17525;BME280;40431;52.198;9.902;2023-07-20T04:21:39;100406.63;;;16.54;100.00
17525;BME280;40431;52.198;9.902;2023-07-20T04:24:08;100414.38;;;16.49;100.00
17525;BME280;40431;52.198;9.902;2023-07-20T04:26:35;100418.50;;;16.43;100.00
17525;BME280;40431;52.198;9.902;2023-07-20T04:29:02;100417.66;;;16.43;100.00
17525;BME280;40431;52.198;9.902;2023-07-20T04:31:28;100422.84;;;16.46;100.00
17525;BME280;40431;52.198;9.902;2023-07-20T04:33:57;100429.91;;;16.48;100.00
17525;BME280;40431;52.198;9.902;2023-07-20T04:36:23;100427.19;;;16.48;100.00
17525;BME280;40431;52.198;9.902;2023-07-20T04:38:50;100425.47;;;16.47;100.00
17525;BME280;40431;52.198;9.902;2023-07-20T04:41:18;100434.38;;;16.49;100.00
17525;BME280;40431;52.198;9.902;2023-07-20T04:43:44;100433.69;;;16.47;100.00
17525;BME280;40431;52.198;9.902;2023-07-20T04:46:11;100443.88;;;16.45;100.00
17525;BME280;40431;52.198;9.902;2023-07-20T04:48:37;100442.13;;;16.44;100.00
17525;BME280;40431;52.198;9.902;2023-07-20T04:51:05;100438.75;;;16.31;100.00
17525;BME280;40431;52.198;9.902;2023-07-20T04:53:32;100446.78;;;16.11;100.00
17525;BME280;40431;52.198;9.902;2023-07-20T04:55:58;100440.47;;;16.11;100.00
17525;BME280;40431;52.198;9.902;2023-07-20T04:58:26;100448.81;;;16.09;100.00
17525;BME280;40431;52.198;9.902;2023-07-20T05:00:53;100451.03;;;16.15;100.00
17525;BME280;40431;52.198;9.902;2023-07-20T05:03:19;100445.31;;;16.07;100.00
17525;BME280;40431;52.198;9.902;2023-07-20T05:05:46;100452.63;;;15.97;100.00
17525;BME280;40431;52.198;9.902;2023-07-20T05:08:13;100449.88;;;15.97;100.00
17525;BME280;40431;52.198;9.902;2023-07-20T05:10:39;100453.47;;;15.97;100.00
17525;BME280;40431;52.198;9.902;2023-07-20T05:13:05;100460.28;;;16.03;100.00
17525;BME280;40431;52.198;9.902;2023-07-20T05:15:34;100453.81;;;16.04;100.00
17525;BME280;40431;52.198;9.902;2023-07-20T05:18:00;100456.53;;;16.04;100.00
17525;BME280;40431;52.198;9.902;2023-07-20T05:20:26;100459.91;;;16.08;100.00
17525;BME280;40431;52.198;9.902;2023-07-20T05:22:53;100452.72;;;15.95;100.00
17525;BME280;40431;52.198;9.902;2023-07-20T05:25:19;100457.59;;;15.92;100.00
17525;BME280;40431;52.198;9.902;2023-07-20T05:27:48;100463.31;;;15.89;100.00
17525;BME280;40431;52.198;9.902;2023-07-20T05:30:14;100458.66;;;15.68;100.00
17525;BME280;40431;52.198;9.902;2023-07-20T05:32:42;100470.56;;;15.67;100.00
17525;BME280;40431;52.198;9.902;2023-07-20T05:35:10;100456.59;;;15.49;100.00
17525;BME280;40431;52.198;9.902;2023-07-20T05:37:37;100469.50;;;15.47;100.00
17525;BME280;40431;52.198;9.902;2023-07-20T05:40:05;100468.66;;;15.46;100.00
17525;BME280;40431;52.198;9.902;2023-07-20T05:42:33;100472.78;;;15.29;100.00
17525;BME280;40431;52.198;9.902;2023-07-20T05:44:59;100467.19;;;15.31;100.00
17525;BME280;40431;52.198;9.902;2023-07-20T05:47:25;100476.00;;;15.34;100.00
17525;BME280;40431;52.198;9.902;2023-07-20T05:49:53;100475.72;;;15.38;100.00
17525;BME280;40431;52.198;9.902;2023-07-20T05:52:19;100476.94;;;15.45;100.00
17525;BME280;40431;52.198;9.902;2023-07-20T05:54:46;100476.19;;;15.54;100.00
17525;BME280;40431;52.198;9.902;2023-07-20T05:57:12;100478.56;;;15.47;100.00
17525;BME280;40431;52.198;9.902;2023-07-20T05:59:39;100486.16;;;15.44;100.00
17525;BME280;40431;52.198;9.902;2023-07-20T06:02:09;100479.22;;;15.40;100.00
17525;BME280;40431;52.198;9.902;2023-07-20T06:04:35;100492.25;;;15.36;100.00
17525;BME280;40431;52.198;9.902;2023-07-20T06:07:03;100489.28;;;15.28;100.00
17525;BME280;40431;52.198;9.902;2023-07-20T06:09:30;100487.56;;;15.27;100.00
17525;BME280;40431;52.198;9.902;2023-07-20T06:11:56;100494.00;;;15.26;100.00
17525;BME280;40431;52.198;9.902;2023-07-20T06:14:23;100489.28;;;15.16;100.00
17525;BME280;40431;52.198;9.902;2023-07-20T06:16:49;100488.56;;;15.14;100.00
17525;BME280;40431;52.198;9.902;2023-07-20T06:19:15;100494.38;;;15.21;100.00
17525;BME280;40431;52.198;9.902;2023-07-20T06:21:42;100493.88;;;15.27;100.00
17525;BME280;40431;52.198;9.902;2023-07-20T06:24:10;100497.72;;;15.36;100.00
17525;BME280;40431;52.198;9.902;2023-07-20T06:26:36;100496.47;;;15.40;100.00
17525;BME280;40431;52.198;9.902;2023-07-20T06:29:04;100495.00;;;15.36;100.00
17525;BME280;40431;52.198;9.902;2023-07-20T06:31:31;100500.72;;;15.33;100.00
17525;BME280;40431;52.198;9.902;2023-07-20T06:33:57;100498.44;;;15.38;100.00
17525;BME280;40431;52.198;9.902;2023-07-20T06:36:24;100504.91;;;15.48;100.00
17525;BME280;40431;52.198;9.902;2023-07-20T06:38:51;100500.69;;;15.56;100.00
17525;BME280;40431;52.198;9.902;2023-07-20T06:41:18;100511.22;;;15.60;100.00
17525;BME280;40431;52.198;9.902;2023-07-20T06:43:45;100502.50;;;15.66;100.00
17525;BME280;40431;52.198;9.902;2023-07-20T06:46:11;100501.50;;;15.67;100.00
17525;BME280;40431;52.198;9.902;2023-07-20T06:48:38;100506.16;;;15.56;100.00
17525;BME280;40431;52.198;9.902;2023-07-20T06:51:04;100504.28;;;15.56;100.00
17525;BME280;40431;52.198;9.902;2023-07-20T06:53:31;100507.09;;;15.66;100.00
17525;BME280;40431;52.198;9.902;2023-07-20T06:55:57;100499.59;;;15.79;100.00
17525;BME280;40431;52.198;9.902;2023-07-20T06:58:25;100510.81;;;15.88;100.00
17525;BME280;40431;52.198;9.902;2023-07-20T07:00:51;100513.66;;;15.86;100.00
17525;BME280;40431;52.198;9.902;2023-07-20T07:03:18;100513.16;;;15.92;100.00
17525;BME280;40431;52.198;9.902;2023-07-20T07:05:44;100515.88;;;15.92;100.00
17525;BME280;40431;52.198;9.902;2023-07-20T07:08:11;100523.88;;;15.84;100.00
17525;BME280;40431;52.198;9.902;2023-07-20T07:10:38;100518.00;;;15.77;100.00
17525;BME280;40431;52.198;9.902;2023-07-20T07:13:04;100521.84;;;15.86;100.00
17525;BME280;40431;52.198;9.902;2023-07-20T07:15:32;100529.91;;;15.99;100.00
17525;BME280;40431;52.198;9.902;2023-07-20T07:17:58;100533.34;;;16.12;100.00
17525;BME280;40431;52.198;9.902;2023-07-20T07:20:25;100529.19;;;16.18;100.00
17525;BME280;40431;52.198;9.902;2023-07-20T07:22:52;100524.88;;;16.15;100.00
17525;BME280;40431;52.198;9.902;2023-07-20T07:25:18;100528.69;;;16.24;100.00
17525;BME280;40431;52.198;9.902;2023-07-20T07:27:45;100527.63;;;16.36;100.00
17525;BME280;40431;52.198;9.902;2023-07-20T07:30:12;100523.03;;;16.37;100.00
17525;BME280;40431;52.198;9.902;2023-07-20T07:32:40;100527.13;;;16.64;100.00
17525;BME280;40431;52.198;9.902;2023-07-20T07:35:07;100528.06;;;16.95;100.00
17525;BME280;40431;52.198;9.902;2023-07-20T07:37:33;100529.84;;;17.06;100.00
17525;BME280;40431;52.198;9.902;2023-07-20T07:40:00;100531.03;;;17.13;100.00
17525;BME280;40431;52.198;9.902;2023-07-20T07:42:28;100533.41;;;17.28;100.00
17525;BME280;40431;52.198;9.902;2023-07-20T07:44:55;100533.16;;;17.41;100.00
17525;BME280;40431;52.198;9.902;2023-07-20T07:47:21;100532.91;;;17.53;100.00
17525;BME280;40431;52.198;9.902;2023-07-20T07:49:49;100530.34;;;17.62;100.00
17525;BME280;40431;52.198;9.902;2023-07-20T07:52:16;100528.63;;;17.61;100.00
17525;BME280;40431;52.198;9.902;2023-07-20T07:54:42;100529.78;;;17.68;100.00
17525;BME280;40431;52.198;9.902;2023-07-20T07:57:09;100538.91;;;17.78;100.00
17525;BME280;40431;52.198;9.902;2023-07-20T07:59:35;100532.72;;;17.86;100.00
17525;BME280;40431;52.198;9.902;2023-07-20T08:02:04;100535.53;;;18.06;100.00
17525;BME280;40431;52.198;9.902;2023-07-20T08:04:30;100530.63;;;18.19;98.04
17525;BME280;40431;52.198;9.902;2023-07-20T08:06:59;100531.75;;;18.36;97.57
17525;BME280;40431;52.198;9.902;2023-07-20T08:09:25;100532.03;;;18.52;93.03
17525;BME280;40431;52.198;9.902;2023-07-20T08:11:52;100533.63;;;18.55;96.52
17525;BME280;40431;52.198;9.902;2023-07-20T08:14:18;100534.22;;;18.59;93.64
17525;BME280;40431;52.198;9.902;2023-07-20T08:16:45;100537.78;;;18.69;93.12
17525;BME280;40431;52.198;9.902;2023-07-20T08:19:12;100539.38;;;18.81;94.65
17525;BME280;40431;52.198;9.902;2023-07-20T08:21:39;100533.63;;;18.75;91.54
17525;BME280;40431;52.198;9.902;2023-07-20T08:24:07;100540.25;;;18.72;89.12
17525;BME280;40431;52.198;9.902;2023-07-20T08:26:33;100529.81;;;18.76;88.08
17525;BME280;40431;52.198;9.902;2023-07-20T08:28:59;100535.03;;;18.79;88.13
17525;BME280;40431;52.198;9.902;2023-07-20T08:31:26;100532.56;;;18.85;85.09
17525;BME280;40431;52.198;9.902;2023-07-20T08:33:53;100538.34;;;18.82;84.41
17525;BME280;40431;52.198;9.902;2023-07-20T08:36:22;100540.38;;;18.80;87.20
17525;BME280;40431;52.198;9.902;2023-07-20T08:38:48;100536.78;;;18.70;87.42
17525;BME280;40431;52.198;9.902;2023-07-20T08:41:16;100545.47;;;18.56;84.33
17525;BME280;40431;52.198;9.902;2023-07-20T08:43:43;100538.53;;;18.61;88.91
17525;BME280;40431;52.198;9.902;2023-07-20T08:46:12;100544.13;;;18.79;85.93
17525;BME280;40431;52.198;9.902;2023-07-20T08:48:40;100538.53;;;18.71;82.65
17525;BME280;40431;52.198;9.902;2023-07-20T08:51:08;100534.47;;;18.75;84.75
17525;BME280;40431;52.198;9.902;2023-07-20T08:53:36;100539.66;;;18.78;84.46
17525;BME280;40431;52.198;9.902;2023-07-20T08:56:04;100540.22;;;18.92;84.67
17525;BME280;40431;52.198;9.902;2023-07-20T08:58:33;100539.75;;;19.16;83.95
17525;BME280;40431;52.198;9.902;2023-07-20T09:01:00;100542.41;;;19.35;83.67
17525;BME280;40431;52.198;9.902;2023-07-20T09:03:27;100545.09;;;19.17;80.45
17525;BME280;40431;52.198;9.902;2023-07-20T09:05:54;100542.34;;;19.08;79.00
17525;BME280;40431;52.198;9.902;2023-07-20T09:08:20;100535.19;;;19.34;82.11
17525;BME280;40431;52.198;9.902;2023-07-20T09:10:46;100542.31;;;19.55;77.04
17525;BME280;40431;52.198;9.902;2023-07-20T09:13:14;100533.16;;;19.36;70.44
17525;BME280;40431;52.198;9.902;2023-07-20T09:15:45;100543.13;;;19.38;72.62
17525;BME280;40431;52.198;9.902;2023-07-20T09:18:12;100533.63;;;19.60;70.03
17525;BME280;40431;52.198;9.902;2023-07-20T09:20:38;100535.22;;;19.80;68.24
17525;BME280;40431;52.198;9.902;2023-07-20T09:23:05;100530.84;;;19.88;68.13
17525;BME280;40431;52.198;9.902;2023-07-20T09:25:32;100527.16;;;19.97;69.00
17525;BME280;40431;52.198;9.902;2023-07-20T09:28:02;100528.78;;;20.17;68.57
17525;BME280;40431;52.198;9.902;2023-07-20T09:30:29;100533.84;;;19.94;67.90
17525;BME280;40431;52.198;9.902;2023-07-20T09:32:57;100535.13;;;19.72;66.45
17525;BME280;40431;52.198;9.902;2023-07-20T09:35:24;100536.75;;;19.65;68.61
17525;BME280;40431;52.198;9.902;2023-07-20T09:37:52;100534.00;;;19.65;65.60
17525;BME280;40431;52.198;9.902;2023-07-20T09:40:19;100527.09;;;19.89;67.41
17525;BME280;40431;52.198;9.902;2023-07-20T09:42:46;100537.19;;;20.16;65.50
17525;BME280;40431;52.198;9.902;2023-07-20T09:45:13;100534.59;;;20.32;64.67
17525;BME280;40431;52.198;9.902;2023-07-20T09:47:40;100534.75;;;20.49;61.03
17525;BME280;40431;52.198;9.902;2023-07-20T09:50:08;100540.47;;;20.56;63.79
17525;BME280;40431;52.198;9.902;2023-07-20T09:52:38;100526.41;;;20.77;61.01
17525;BME280;40431;52.198;9.902;2023-07-20T09:55:06;100528.31;;;20.84;60.01
17525;BME280;40431;52.198;9.902;2023-07-20T09:57:34;100539.28;;;20.76;56.13
17525;BME280;40431;52.198;9.902;2023-07-20T10:00:01;100522.81;;;20.84;57.52
17525;BME280;40431;52.198;9.902;2023-07-20T10:02:33;100530.94;;;20.86;57.70
17525;BME280;40431;52.198;9.902;2023-07-20T10:05:03;100520.00;;;20.76;60.71
17525;BME280;40431;52.198;9.902;2023-07-20T10:07:32;100531.84;;;20.95;61.48
17525;BME280;40431;52.198;9.902;2023-07-20T10:10:02;100541.72;;;20.79;58.20
17525;BME280;40431;52.198;9.902;2023-07-20T10:12:31;100529.69;;;20.44;58.18
17525;BME280;40431;52.198;9.902;2023-07-20T10:15:04;100523.72;;;20.31;57.87
17525;BME280;40431;52.198;9.902;2023-07-20T10:17:37;100525.75;;;20.29;57.52
17525;BME280;40431;52.198;9.902;2023-07-20T10:20:07;100533.94;;;20.57;60.09
17525;BME280;40431;52.198;9.902;2023-07-20T10:22:36;100526.53;;;20.75;58.59
17525;BME280;40431;52.198;9.902;2023-07-20T10:25:03;100521.78;;;20.85;54.01
17525;BME280;40431;52.198;9.902;2023-07-20T10:27:31;100520.56;;;21.06;54.82
17525;BME280;40431;52.198;9.902;2023-07-20T10:29:58;100523.72;;;21.19;53.65
17525;BME280;40431;52.198;9.902;2023-07-20T10:32:25;100516.09;;;21.13;54.11
17525;BME280;40431;52.198;9.902;2023-07-20T10:34:52;100510.72;;;21.04;55.24
17525;BME280;40431;52.198;9.902;2023-07-20T10:37:49;100516.00;;;20.97;53.20
17525;BME280;40431;52.198;9.902;2023-07-20T10:40:40;100505.28;;;20.94;52.84
17525;BME280;40431;52.198;9.902;2023-07-20T10:43:07;100495.91;;;20.78;53.44
17525;BME280;40431;52.198;9.902;2023-07-20T10:45:41;100507.56;;;20.72;54.30
17525;BME280;40431;52.198;9.902;2023-07-20T10:48:14;100505.53;;;20.74;51.52
17525;BME280;40431;52.198;9.902;2023-07-20T10:50:42;100503.25;;;20.96;52.17
17525;BME280;40431;52.198;9.902;2023-07-20T10:53:15;100498.56;;;21.23;54.79
17525;BME280;40431;52.198;9.902;2023-07-20T10:55:42;100501.75;;;21.44;55.81
17525;BME280;40431;52.198;9.902;2023-07-20T10:58:12;100507.28;;;21.44;52.70
17525;BME280;40431;52.198;9.902;2023-07-20T11:00:55;100505.81;;;21.24;52.22
17525;BME280;40431;52.198;9.902;2023-07-20T11:03:29;100498.94;;;21.28;52.56
17525;BME280;40431;52.198;9.902;2023-07-20T11:05:56;100503.50;;;21.45;52.36
17525;BME280;40431;52.198;9.902;2023-07-20T11:11:23;100501.47;;;21.47;51.85
17525;BME280;40431;52.198;9.902;2023-07-20T11:13:54;100498.84;;;21.46;51.73
17525;BME280;40431;52.198;9.902;2023-07-20T11:16:32;100500.06;;;21.43;51.66
17525;BME280;40431;52.198;9.902;2023-07-20T11:18:59;100497.00;;;21.55;52.35
17525;BME280;40431;52.198;9.902;2023-07-20T11:21:26;100498.41;;;21.59;53.63
17525;BME280;40431;52.198;9.902;2023-07-20T11:23:53;100495.47;;;21.60;52.40
17525;BME280;40431;52.198;9.902;2023-07-20T11:26:20;100501.53;;;21.64;52.67
17525;BME280;40431;52.198;9.902;2023-07-20T11:28:49;100503.56;;;21.62;52.78
17525;BME280;40431;52.198;9.902;2023-07-20T11:31:17;100504.66;;;21.69;52.09
17525;BME280;40431;52.198;9.902;2023-07-20T11:33:43;100499.53;;;21.48;51.19
17525;BME280;40431;52.198;9.902;2023-07-20T11:36:10;100503.47;;;21.37;51.81
17525;BME280;40431;52.198;9.902;2023-07-20T11:38:38;100506.09;;;21.12;54.66
17525;BME280;40431;52.198;9.902;2023-07-20T11:41:05;100496.13;;;21.11;55.71
17525;BME280;40431;52.198;9.902;2023-07-20T11:43:32;100495.66;;;20.98;55.70
17525;BME280;40431;52.198;9.902;2023-07-20T11:46:00;100497.88;;;20.86;56.06
17525;BME280;40431;52.198;9.902;2023-07-20T11:48:26;100498.72;;;20.87;57.44
17525;BME280;40431;52.198;9.902;2023-07-20T11:50:53;100506.59;;;21.08;55.31
17525;BME280;40431;52.198;9.902;2023-07-20T11:53:19;100502.31;;;21.13;54.39
17525;BME280;40431;52.198;9.902;2023-07-20T11:55:46;100504.25;;;21.21;54.87
17525;BME280;40431;52.198;9.902;2023-07-20T11:58:13;100497.63;;;21.40;55.17
17525;BME280;40431;52.198;9.902;2023-07-20T12:00:43;100498.44;;;21.67;55.99
17525;BME280;40431;52.198;9.902;2023-07-20T12:03:12;100493.31;;;21.46;53.76
17525;BME280;40431;52.198;9.902;2023-07-20T12:05:38;100495.19;;;21.37;53.42
17525;BME280;40431;52.198;9.902;2023-07-20T12:08:05;100495.00;;;21.30;53.21
17525;BME280;40431;52.198;9.902;2023-07-20T12:10:31;100495.28;;;21.19;54.62
17525;BME280;40431;52.198;9.902;2023-07-20T12:13:01;100500.78;;;21.19;54.42
17525;BME280;40431;52.198;9.902;2023-07-20T12:15:28;100498.91;;;21.19;54.36
17525;BME280;40431;52.198;9.902;2023-07-20T12:17:58;100499.91;;;21.10;53.43
17525;BME280;40431;52.198;9.902;2023-07-20T12:20:27;100500.22;;;21.07;54.63
17525;BME280;40431;52.198;9.902;2023-07-20T12:22:58;100499.69;;;21.04;55.09
17525;BME280;40431;52.198;9.902;2023-07-20T12:25:33;100498.50;;;21.06;55.71
17525;BME280;40431;52.198;9.902;2023-07-20T12:28:01;100501.91;;;21.00;55.18
17525;BME280;40431;52.198;9.902;2023-07-20T12:30:29;100496.47;;;21.16;55.58
17525;BME280;40431;52.198;9.902;2023-07-20T12:32:55;100495.94;;;21.47;55.79
17525;BME280;40431;52.198;9.902;2023-07-20T12:35:21;100492.34;;;21.55;53.82
17525;BME280;40431;52.198;9.902;2023-07-20T12:37:49;100482.56;;;21.61;54.10
17525;BME280;40431;52.198;9.902;2023-07-20T12:40:16;100483.13;;;21.81;54.86
17525;BME280;40431;52.198;9.902;2023-07-20T12:42:43;100487.09;;;21.95;52.49
17525;BME280;40431;52.198;9.902;2023-07-20T12:45:10;100473.84;;;22.07;51.68
17525;BME280;40431;52.198;9.902;2023-07-20T12:47:39;100465.25;;;22.18;52.56
17525;BME280;40431;52.198;9.902;2023-07-20T12:50:06;100473.38;;;22.36;51.79